Alderpoint, CA

11:45 PM PST on December 08, 2016 (GMT -0800)
KB6VSE @ Benbow | | Change Station

Elev 436 ft 40.07 °N, 123.78 °W | Updated 8 minutes ago

Overcast
Overcast
52.1 °F
Feels Like 52.1 °F
N
0.0
Wind Variable Wind from ENE
Gusts 2.0 mph

Today
High -- | Low -- °F
--% Chance of Precip.
Yesterday
High -- | Low -- °F
Precip. -- in
Pressure 30.12 in
Visibility 7.0 miles
Clouds Overcast 2400 ft
Dew Point 51 °F
Humidity 96%
Rainfall 0.64 in
Snow Depth Not available.
7:24 AM 4:48 PM
Waxing Gibbous, 71% visible
METAR KFOT 090735Z AUTO 00000KT 7SM OVC024 13/12 A3012 RMK AO1
Pressure 30.12 in
Visibility 7.0 miles
Clouds Overcast 2400 ft
Dew Point 51 °F
Humidity 96%
Rainfall 0.64 in
Snow Depth Not available.
7:24 AM 4:48 PM
Waxing Gibbous, 71% visible
METAR KFOT 090735Z AUTO 00000KT 7SM OVC024 13/12 A3012 RMK AO1

10-Day Weather Forecast

Almanac

Astronomy

Dec. 08, 2016 Rise Set
Actual Time
Civil Twilight
Nautical Twilight
Astronomical Twilight
Moon
Length of Visible Light
Length of Day
Tomorrow will be .
, % of the Moon is Illuminated

Today's Extremes

State Highs State Lows

Community

WunderPhotos

Upload Photos

1,956,374 photos uploaded!

WunderBlog® & News

Nearby

Air Quality

  Air Quality AQ Index Pollutant
Not available.

Snow Depth

Station Depth Elevation

Earthquake Activity

City Distance Mag. Time & Date
Minimum magnitude displayed is 2.5.

Coastal Water Temperatures

Place Temperature

Stations

Nearby Weather Stations

Station Location Temp. Windchill Dew Point Humidity Wind Precip. Elev Updated Type
                   

Watches & Warnings

There are currently no watches in effect.